createdAt,value
2023-01-30T00:00:21.161Z,925.19
2023-01-30T00:01:21.107Z,925.19
2023-01-30T00:02:21.127Z,925.19
2023-01-30T00:03:21.278Z,925.22
2023-01-30T00:04:21.091Z,925.24
2023-01-30T00:05:21.116Z,925.26
2023-01-30T00:06:21.044Z,925.27
2023-01-30T00:07:21.043Z,925.28
2023-01-30T00:08:21.081Z,925.30
2023-01-30T00:09:21.092Z,925.31
2023-01-30T00:10:21.023Z,925.33
2023-01-30T00:11:21.036Z,925.36
2023-01-30T00:12:21.005Z,925.37
2023-01-30T00:13:21.042Z,925.39
2023-01-30T00:14:21.100Z,925.41
2023-01-30T00:15:21.057Z,925.41
2023-01-30T00:16:21.102Z,925.41
2023-01-30T00:17:20.961Z,925.39
2023-01-30T00:18:20.976Z,925.39
2023-01-30T00:19:21.081Z,925.39
2023-01-30T00:20:21.317Z,925.39
2023-01-30T00:21:20.941Z,925.39
2023-01-30T00:22:20.934Z,925.41
2023-01-30T00:23:20.909Z,925.42
2023-01-30T00:24:21.058Z,925.45
2023-01-30T00:25:21.155Z,925.49
2023-01-30T00:26:20.965Z,925.53
2023-01-30T00:27:20.828Z,925.55
2023-01-30T00:28:20.936Z,925.55
2023-01-30T00:29:20.882Z,925.56
2023-01-30T00:30:20.927Z,925.56
2023-01-30T00:31:20.892Z,925.57
2023-01-30T00:32:21.370Z,925.58
2023-01-30T00:33:20.770Z,925.60
2023-01-30T00:34:20.776Z,925.62
2023-01-30T00:35:20.826Z,925.62
2023-01-30T00:36:20.724Z,925.63
2023-01-30T00:37:20.790Z,925.64
2023-01-30T00:38:20.738Z,925.66
2023-01-30T00:39:20.738Z,925.68
2023-01-30T00:40:21.026Z,925.69
2023-01-30T00:41:20.719Z,925.69
2023-01-30T00:42:20.667Z,925.70
2023-01-30T00:43:20.936Z,925.69
2023-01-30T00:44:20.737Z,925.69
2023-01-30T00:45:20.957Z,925.70
2023-01-30T00:46:20.698Z,925.71
2023-01-30T00:47:20.864Z,925.69
2023-01-30T00:48:20.600Z,925.70
2023-01-30T00:49:20.622Z,925.71
2023-01-30T00:50:20.569Z,925.71
2023-01-30T00:51:20.574Z,925.73
2023-01-30T00:52:20.584Z,925.73
2023-01-30T00:53:20.700Z,925.72
2023-01-30T00:54:20.597Z,925.71
2023-01-30T00:55:20.605Z,925.70
2023-01-30T00:56:20.508Z,925.72
2023-01-30T00:57:20.514Z,925.74
2023-01-30T00:58:21.366Z,925.78
2023-01-30T00:59:20.569Z,925.80
2023-01-30T01:00:20.469Z,925.81
2023-01-30T01:01:20.476Z,925.81
2023-01-30T01:02:21.038Z,925.81
2023-01-30T01:03:20.469Z,925.80
2023-01-30T01:04:20.501Z,925.81
2023-01-30T01:05:20.739Z,925.83
2023-01-30T01:06:20.415Z,925.83
2023-01-30T01:07:21.321Z,925.83
2023-01-30T01:08:20.418Z,925.83
2023-01-30T01:09:20.450Z,925.82
2023-01-30T01:10:20.426Z,925.82
2023-01-30T01:11:20.457Z,925.82
2023-01-30T01:12:20.407Z,925.83
2023-01-30T01:13:20.286Z,925.82
2023-01-30T01:14:20.296Z,925.82
2023-01-30T01:15:20.734Z,925.83
2023-01-30T01:16:20.365Z,925.83
2023-01-30T01:17:20.312Z,925.85
2023-01-30T01:18:20.315Z,925.87
2023-01-30T01:19:20.458Z,925.90
2023-01-30T01:20:20.229Z,925.93
2023-01-30T01:21:20.720Z,925.94
2023-01-30T01:22:20.241Z,925.95
2023-01-30T01:23:20.319Z,925.95
2023-01-30T01:24:20.251Z,925.94
2023-01-30T01:25:20.464Z,925.93
2023-01-30T01:26:20.516Z,925.92
2023-01-30T01:27:20.184Z,925.90
2023-01-30T01:28:20.186Z,925.89
2023-01-30T01:29:20.455Z,925.89
2023-01-30T01:30:20.277Z,925.89
2023-01-30T01:31:20.262Z,925.90
2023-01-30T01:32:20.165Z,925.91
2023-01-30T01:33:20.111Z,925.92
2023-01-30T01:34:20.180Z,925.92
2023-01-30T01:35:20.601Z,925.91
2023-01-30T01:36:49.962Z,925.89
2023-01-30T01:37:20.119Z,925.86
2023-01-30T01:38:20.142Z,925.84
2023-01-30T01:39:20.050Z,925.83
2023-01-30T01:40:20.065Z,925.83
2023-01-30T01:41:20.443Z,925.83
2023-01-30T01:42:20.076Z,925.84
2023-01-30T01:43:19.978Z,925.85
2023-01-30T01:44:19.986Z,925.87
2023-01-30T01:45:20.275Z,925.87
2023-01-30T01:46:20.089Z,925.87
2023-01-30T01:47:20.083Z,925.87
2023-01-30T01:48:20.529Z,925.87
2023-01-30T01:49:19.974Z,925.87
2023-01-30T01:50:19.918Z,925.86
2023-01-30T01:51:19.915Z,925.88
2023-01-30T01:52:19.988Z,925.87
2023-01-30T01:53:20.357Z,925.88
2023-01-30T01:54:19.918Z,925.88
2023-01-30T01:55:20.258Z,925.88
2023-01-30T01:56:19.860Z,925.89
2023-01-30T01:57:19.867Z,925.89
2023-01-30T01:58:19.873Z,925.89
2023-01-30T01:59:19.883Z,925.90
2023-01-30T02:00:19.891Z,925.90
2023-01-30T02:01:19.839Z,925.88
2023-01-30T02:02:19.862Z,925.89
2023-01-30T02:03:19.875Z,925.89
2023-01-30T02:04:19.819Z,925.90
2023-01-30T02:05:20.416Z,925.92
2023-01-30T02:06:19.809Z,925.95
2023-01-30T02:07:19.786Z,925.99
2023-01-30T02:08:19.749Z,926.02
2023-01-30T02:09:19.809Z,926.06
2023-01-30T02:10:19.756Z,926.08
2023-01-30T02:11:19.760Z,926.10
2023-01-30T02:12:19.728Z,926.12
2023-01-30T02:13:19.676Z,926.12
2023-01-30T02:14:19.681Z,926.09
2023-01-30T02:15:19.972Z,926.08
2023-01-30T02:16:19.745Z,926.07
2023-01-30T02:17:20.027Z,926.08
2023-01-30T02:18:19.601Z,926.07
2023-01-30T02:19:20.322Z,926.08
2023-01-30T02:20:19.695Z,926.05
2023-01-30T02:21:19.624Z,926.04
2023-01-30T02:22:19.626Z,926.01
2023-01-30T02:23:20.019Z,926.00
2023-01-30T02:24:19.653Z,925.96
2023-01-30T02:25:20.137Z,925.94
2023-01-30T02:26:19.577Z,925.91
2023-01-30T02:27:19.565Z,925.88
2023-01-30T02:28:19.576Z,925.87
2023-01-30T02:29:19.577Z,925.85
2023-01-30T02:30:19.582Z,925.84
2023-01-30T02:31:19.601Z,925.82
2023-01-30T02:32:19.508Z,925.81
2023-01-30T02:33:19.559Z,925.81
2023-01-30T02:34:19.566Z,925.81
2023-01-30T02:35:19.883Z,925.81
2023-01-30T02:36:19.418Z,925.82
2023-01-30T02:37:20.128Z,925.80
2023-01-30T02:38:19.428Z,925.80
2023-01-30T02:39:19.513Z,925.79
2023-01-30T02:40:19.449Z,925.78
2023-01-30T02:41:19.639Z,925.76
2023-01-30T02:42:19.470Z,925.74
2023-01-30T02:43:19.421Z,925.74
2023-01-30T02:44:19.379Z,925.72
2023-01-30T02:45:19.810Z,925.71
2023-01-30T02:46:19.440Z,925.71
2023-01-30T02:47:19.465Z,925.69
2023-01-30T02:48:19.292Z,925.68
2023-01-30T02:49:19.306Z,925.67
2023-01-30T02:50:19.364Z,925.66
2023-01-30T02:51:19.321Z,925.67
2023-01-30T02:52:19.325Z,925.68
2023-01-30T02:53:19.320Z,925.69
2023-01-30T02:54:19.230Z,925.67
2023-01-30T02:55:19.707Z,925.64
2023-01-30T02:56:19.238Z,925.61
2023-01-30T02:57:19.252Z,925.62
2023-01-30T02:58:19.437Z,925.59
2023-01-30T02:59:19.232Z,925.59
2023-01-30T03:00:19.173Z,925.58
2023-01-30T03:01:19.241Z,925.59
2023-01-30T03:02:19.221Z,925.65
2023-01-30T03:03:19.160Z,925.60
2023-01-30T03:04:19.195Z,925.60
2023-01-30T03:05:19.624Z,925.60
2023-01-30T03:06:19.163Z,925.59
2023-01-30T03:07:19.220Z,925.58
2023-01-30T03:08:19.152Z,925.56
2023-01-30T03:09:19.129Z,925.55
2023-01-30T03:10:19.109Z,925.53
2023-01-30T03:11:19.103Z,925.52
2023-01-30T03:12:19.089Z,925.50
2023-01-30T03:13:19.051Z,925.47
2023-01-30T03:14:19.058Z,925.46
2023-01-30T03:15:19.373Z,925.45
2023-01-30T03:16:19.094Z,925.42
2023-01-30T03:17:19.192Z,925.43
2023-01-30T03:18:18.996Z,925.42
2023-01-30T03:19:19.032Z,925.43
2023-01-30T03:20:19.032Z,925.44
2023-01-30T03:21:18.970Z,925.43
2023-01-30T03:22:19.039Z,925.43
2023-01-30T03:23:18.984Z,925.44
2023-01-30T03:24:19.013Z,925.43
2023-01-30T03:25:19.389Z,925.44
2023-01-30T03:26:18.943Z,925.44
2023-01-30T03:27:18.922Z,925.44
2023-01-30T03:28:18.923Z,925.43
2023-01-30T03:29:18.922Z,925.45
2023-01-30T03:30:18.899Z,925.42
2023-01-30T03:31:18.976Z,925.41
2023-01-30T03:32:18.846Z,925.39
2023-01-30T03:33:18.852Z,925.37
2023-01-30T03:34:18.827Z,925.35
2023-01-30T03:35:19.171Z,925.34
2023-01-30T03:36:18.767Z,925.32
2023-01-30T03:37:18.837Z,925.31
2023-01-30T03:38:18.752Z,925.32
2023-01-30T03:39:18.760Z,925.32
2023-01-30T03:40:18.710Z,925.31
2023-01-30T03:41:18.808Z,925.29
2023-01-30T03:42:18.716Z,925.26
2023-01-30T03:43:18.720Z,925.22
2023-01-30T03:44:18.679Z,925.20
2023-01-30T03:45:19.032Z,925.18
2023-01-30T03:46:18.714Z,925.17
2023-01-30T03:47:18.655Z,925.16
2023-01-30T03:48:18.651Z,925.16
2023-01-30T03:49:18.653Z,925.16
2023-01-30T03:50:18.616Z,925.15
2023-01-30T03:51:18.627Z,925.15
2023-01-30T03:52:18.589Z,925.12
2023-01-30T03:53:18.645Z,925.09
2023-01-30T03:54:18.587Z,925.06
2023-01-30T03:55:18.935Z,925.04
2023-01-30T03:56:18.611Z,925.01
2023-01-30T03:57:18.585Z,924.99
2023-01-30T03:58:18.521Z,924.96
2023-01-30T03:59:18.585Z,924.93
2023-01-30T04:00:18.595Z,924.92
2023-01-30T04:01:18.612Z,924.86
2023-01-30T04:02:18.557Z,924.83
2023-01-30T04:03:18.825Z,924.80
2023-01-30T04:04:18.458Z,924.78
2023-01-30T04:05:18.895Z,924.74
2023-01-30T04:06:18.539Z,924.71
2023-01-30T04:07:18.482Z,924.68
2023-01-30T04:08:18.435Z,924.66
2023-01-30T04:09:18.488Z,924.64
2023-01-30T04:10:18.516Z,924.63
2023-01-30T04:11:18.405Z,924.61
2023-01-30T04:12:18.510Z,924.60
2023-01-30T04:13:18.481Z,924.59
2023-01-30T04:14:18.393Z,924.58
2023-01-30T04:15:18.693Z,924.55
2023-01-30T04:16:18.420Z,924.52
2023-01-30T04:17:18.344Z,924.49
2023-01-30T04:18:18.415Z,924.45
2023-01-30T04:19:18.353Z,924.41
2023-01-30T04:20:18.423Z,924.38
2023-01-30T04:21:18.422Z,924.37
2023-01-30T04:22:18.352Z,924.35
2023-01-30T04:23:18.334Z,924.35
2023-01-30T04:24:18.356Z,924.34
2023-01-30T04:25:18.605Z,924.31
2023-01-30T04:26:19.055Z,924.29
2023-01-30T04:27:18.258Z,924.28
2023-01-30T04:28:18.500Z,924.25
2023-01-30T04:29:18.278Z,924.23
2023-01-30T04:30:18.547Z,924.20
2023-01-30T04:31:18.416Z,924.17
2023-01-30T04:32:18.300Z,924.15
2023-01-30T04:33:18.201Z,924.12
2023-01-30T04:34:18.203Z,924.10
2023-01-30T04:35:18.570Z,924.08
2023-01-30T04:36:20.061Z,924.05
2023-01-30T04:37:18.235Z,924.04
2023-01-30T04:38:18.141Z,924.03
2023-01-30T04:39:20.013Z,924.01
2023-01-30T04:40:18.145Z,923.99
2023-01-30T04:41:18.246Z,923.98
2023-01-30T04:42:18.975Z,923.96
2023-01-30T04:43:18.155Z,923.96
2023-01-30T04:44:18.163Z,923.95
2023-01-30T04:45:18.369Z,923.94
2023-01-30T04:46:18.011Z,923.94
2023-01-30T04:47:18.130Z,923.93
2023-01-30T04:48:18.091Z,923.92
2023-01-30T04:49:18.100Z,923.93
2023-01-30T04:50:18.021Z,923.94
2023-01-30T04:51:18.034Z,923.96
2023-01-30T04:52:17.953Z,923.95
2023-01-30T04:53:18.002Z,923.95
2023-01-30T04:54:17.960Z,923.95
2023-01-30T04:55:18.292Z,923.95
2023-01-30T04:56:17.879Z,923.94
2023-01-30T04:57:17.952Z,923.95
2023-01-30T04:58:17.964Z,923.95
2023-01-30T04:59:17.960Z,923.95
2023-01-30T05:00:18.086Z,923.95
2023-01-30T05:01:17.984Z,923.95
2023-01-30T05:02:17.898Z,923.96
2023-01-30T05:03:18.005Z,923.95
2023-01-30T05:04:17.903Z,923.94
2023-01-30T05:05:18.226Z,923.91
2023-01-30T05:06:17.916Z,923.89
2023-01-30T05:07:17.821Z,923.87
2023-01-30T05:08:17.820Z,923.85
2023-01-30T05:09:17.825Z,923.83
2023-01-30T05:10:17.943Z,923.83
2023-01-30T05:11:17.847Z,923.82
2023-01-30T05:12:17.849Z,923.82
2023-01-30T05:13:17.747Z,923.81
2023-01-30T05:14:17.769Z,923.80
2023-01-30T05:15:18.089Z,923.79
2023-01-30T05:16:17.777Z,923.77
2023-01-30T05:17:17.885Z,923.77
2023-01-30T05:18:17.794Z,923.75
2023-01-30T05:19:18.005Z,923.73
2023-01-30T05:20:17.700Z,923.71
2023-01-30T05:21:17.714Z,923.69
2023-01-30T05:22:17.709Z,923.68
2023-01-30T05:23:17.719Z,923.68
2023-01-30T05:24:17.829Z,923.66
2023-01-30T05:25:18.036Z,923.64
2023-01-30T05:26:17.686Z,923.62
2023-01-30T05:27:17.646Z,923.60
2023-01-30T05:28:17.661Z,923.58
2023-01-30T05:29:17.661Z,923.58
2023-01-30T05:30:17.705Z,923.57
2023-01-30T05:31:17.716Z,923.57
2023-01-30T05:32:17.566Z,923.57
2023-01-30T05:33:17.581Z,923.57
2023-01-30T05:34:17.579Z,923.57
2023-01-30T05:35:17.808Z,923.57
2023-01-30T05:36:17.597Z,923.56
2023-01-30T05:37:17.609Z,923.55
2023-01-30T05:38:17.522Z,923.53
2023-01-30T05:39:17.516Z,923.53
2023-01-30T05:40:17.524Z,923.52
2023-01-30T05:41:17.538Z,923.52
2023-01-30T05:42:17.535Z,923.49
2023-01-30T05:43:17.528Z,923.48
2023-01-30T05:44:17.393Z,923.48
2023-01-30T05:45:17.751Z,923.49
2023-01-30T05:46:17.482Z,923.49
2023-01-30T05:47:17.413Z,923.49
2023-01-30T05:48:17.579Z,923.49
2023-01-30T05:49:17.396Z,923.49
2023-01-30T05:50:17.414Z,923.49
2023-01-30T05:51:17.338Z,923.47
2023-01-30T05:52:17.382Z,923.46
2023-01-30T05:53:17.404Z,923.43
2023-01-30T05:54:17.410Z,923.41
2023-01-30T05:55:17.654Z,923.40
2023-01-30T05:56:17.244Z,923.38
2023-01-30T05:57:17.314Z,923.37
2023-01-30T05:58:17.325Z,923.38
2023-01-30T05:59:17.340Z,923.40
2023-01-30T06:00:17.296Z,923.43
2023-01-30T06:01:17.297Z,923.44
2023-01-30T06:02:17.267Z,923.45
2023-01-30T06:03:17.358Z,923.47
2023-01-30T06:04:17.219Z,923.47
2023-01-30T06:05:17.594Z,923.46
2023-01-30T06:06:17.234Z,923.46
2023-01-30T06:07:17.208Z,923.45
2023-01-30T06:08:17.198Z,923.46
2023-01-30T06:09:17.123Z,923.48
2023-01-30T06:10:17.154Z,923.49
2023-01-30T06:11:17.174Z,923.48
2023-01-30T06:12:17.137Z,923.48
2023-01-30T06:13:17.178Z,923.48
2023-01-30T06:14:17.136Z,923.48
2023-01-30T06:15:17.426Z,923.46
2023-01-30T06:16:17.152Z,923.45
2023-01-30T06:17:17.124Z,923.42
2023-01-30T06:18:17.273Z,923.41
2023-01-30T06:19:17.071Z,923.40
2023-01-30T06:20:17.012Z,923.38
2023-01-30T06:21:16.978Z,923.37
2023-01-30T06:22:16.988Z,923.34
2023-01-30T06:23:16.999Z,923.32
2023-01-30T06:24:16.999Z,923.30
2023-01-30T06:25:17.368Z,923.28
2023-01-30T06:26:17.002Z,923.26
2023-01-30T06:27:17.015Z,923.26
2023-01-30T06:28:16.931Z,923.25
2023-01-30T06:29:16.998Z,923.25
2023-01-30T06:30:16.994Z,923.24
2023-01-30T06:31:16.990Z,923.24
2023-01-30T06:32:16.923Z,923.22
2023-01-30T06:33:16.895Z,923.20
2023-01-30T06:34:16.961Z,923.19
2023-01-30T06:35:17.424Z,923.18
2023-01-30T06:36:16.876Z,923.17
2023-01-30T06:37:16.852Z,923.16
2023-01-30T06:38:16.825Z,923.16
2023-01-30T06:39:16.866Z,923.16
2023-01-30T06:40:16.809Z,923.15
2023-01-30T06:41:16.812Z,923.14
2023-01-30T06:42:16.787Z,923.14
2023-01-30T06:43:16.826Z,923.15
2023-01-30T06:44:16.764Z,923.16
2023-01-30T06:45:17.185Z,923.18
2023-01-30T06:46:16.809Z,923.19
2023-01-30T06:47:16.716Z,923.20
2023-01-30T06:48:16.949Z,923.21
2023-01-30T06:49:16.717Z,923.23
2023-01-30T06:50:17.312Z,923.24
2023-01-30T06:51:16.733Z,923.24
2023-01-30T06:52:16.695Z,923.24
2023-01-30T06:53:16.658Z,923.25
2023-01-30T06:54:16.693Z,923.25
2023-01-30T06:55:17.133Z,923.25
2023-01-30T06:56:16.841Z,923.26
2023-01-30T06:57:16.649Z,923.26
2023-01-30T06:58:16.617Z,923.28
2023-01-30T06:59:16.592Z,923.29
2023-01-30T07:00:16.600Z,923.31
2023-01-30T07:01:16.707Z,923.32
2023-01-30T07:02:16.824Z,923.32
2023-01-30T07:03:16.628Z,923.33
2023-01-30T07:04:16.672Z,923.35
2023-01-30T07:05:16.912Z,923.37
2023-01-30T07:06:16.638Z,923.37
2023-01-30T07:07:16.618Z,923.38
2023-01-30T07:08:16.504Z,923.39
2023-01-30T07:09:16.573Z,923.40
2023-01-30T07:10:16.548Z,923.41
2023-01-30T07:11:16.459Z,923.42
2023-01-30T07:12:16.504Z,923.43
2023-01-30T07:13:16.546Z,923.43
2023-01-30T07:14:16.484Z,923.43
2023-01-30T07:15:16.780Z,923.43
2023-01-30T07:16:16.460Z,923.44
2023-01-30T07:17:16.423Z,923.44
2023-01-30T07:18:16.439Z,923.46
2023-01-30T07:19:16.510Z,923.47
2023-01-30T07:20:16.386Z,923.50
2023-01-30T07:21:16.390Z,923.52
2023-01-30T07:22:16.394Z,923.54
2023-01-30T07:23:16.446Z,923.56
2023-01-30T07:24:16.411Z,923.57
2023-01-30T07:25:16.938Z,923.57
2023-01-30T07:26:16.361Z,923.56
2023-01-30T07:27:16.331Z,923.56
2023-01-30T07:28:16.342Z,923.57
2023-01-30T07:29:16.373Z,923.58
2023-01-30T07:30:16.399Z,923.57
2023-01-30T07:31:16.428Z,923.57
2023-01-30T07:32:16.271Z,923.58
2023-01-30T07:33:16.269Z,923.60
2023-01-30T07:34:16.273Z,923.60
2023-01-30T07:35:16.277Z,923.61
2023-01-30T07:36:16.342Z,923.62
2023-01-30T07:37:16.233Z,923.64
2023-01-30T07:38:16.161Z,923.66
2023-01-30T07:39:16.336Z,923.68
2023-01-30T07:40:16.314Z,923.69
2023-01-30T07:41:16.209Z,923.71
2023-01-30T07:42:16.254Z,923.72
2023-01-30T07:43:16.239Z,923.73
2023-01-30T07:44:16.206Z,923.74
2023-01-30T07:45:17.404Z,923.75
2023-01-30T07:46:16.216Z,923.77
2023-01-30T07:47:16.154Z,923.79
2023-01-30T07:48:16.153Z,923.81
2023-01-30T07:49:16.128Z,923.83
2023-01-30T07:50:16.633Z,923.84
2023-01-30T07:51:16.593Z,923.84
2023-01-30T07:52:16.191Z,923.85
2023-01-30T07:53:16.192Z,923.85
2023-01-30T07:54:16.063Z,923.85
2023-01-30T07:55:16.381Z,923.86
2023-01-30T07:56:16.135Z,923.86
2023-01-30T07:57:16.562Z,923.85
2023-01-30T07:58:15.995Z,923.87
2023-01-30T07:59:16.065Z,923.88
2023-01-30T08:00:16.379Z,923.89
2023-01-30T08:01:16.147Z,923.90
2023-01-30T08:02:16.074Z,923.90
2023-01-30T08:03:16.031Z,923.92
2023-01-30T08:04:16.065Z,923.94
2023-01-30T08:05:16.022Z,923.94
2023-01-30T08:06:16.013Z,923.97
2023-01-30T08:07:16.019Z,923.99
2023-01-30T08:08:16.046Z,923.99
2023-01-30T08:09:16.071Z,924.00
2023-01-30T08:10:16.230Z,923.99
2023-01-30T08:11:15.945Z,924.00
2023-01-30T08:12:15.882Z,924.01
2023-01-30T08:13:15.895Z,924.02
2023-01-30T08:14:15.887Z,924.03
2023-01-30T08:15:15.954Z,924.05
2023-01-30T08:16:16.089Z,924.05
2023-01-30T08:17:15.810Z,924.05
2023-01-30T08:18:15.883Z,924.04
2023-01-30T08:19:15.890Z,924.03
2023-01-30T08:20:15.894Z,924.04
2023-01-30T08:21:19.077Z,924.03
2023-01-30T08:22:15.747Z,924.04
2023-01-30T08:23:15.816Z,924.04
2023-01-30T08:24:15.816Z,924.04
2023-01-30T08:25:15.930Z,924.05
2023-01-30T08:26:15.905Z,924.04
2023-01-30T08:27:15.730Z,924.06
2023-01-30T08:28:15.745Z,924.05
2023-01-30T08:29:15.712Z,924.04
2023-01-30T08:30:15.715Z,924.04
2023-01-30T08:31:15.829Z,924.04
2023-01-30T08:32:15.989Z,924.04
2023-01-30T08:33:16.026Z,924.03
2023-01-30T08:34:15.783Z,924.02
2023-01-30T08:35:15.683Z,924.02
2023-01-30T08:36:15.730Z,924.03
2023-01-30T08:37:15.705Z,924.04
2023-01-30T08:38:17.391Z,924.06
2023-01-30T08:39:15.642Z,924.09
2023-01-30T08:40:17.015Z,924.12
2023-01-30T08:41:15.649Z,924.13
2023-01-30T08:42:15.535Z,924.15
2023-01-30T08:43:15.532Z,924.17
2023-01-30T08:44:15.561Z,924.18
2023-01-30T08:45:15.502Z,924.19
2023-01-30T08:46:15.541Z,924.21
2023-01-30T08:47:16.019Z,924.23
2023-01-30T08:48:15.438Z,924.26
2023-01-30T08:49:15.528Z,924.28
2023-01-30T08:50:15.514Z,924.31
2023-01-30T08:51:15.479Z,924.33
2023-01-30T08:52:15.398Z,924.32
2023-01-30T08:53:15.493Z,924.34
2023-01-30T08:54:15.372Z,924.34
2023-01-30T08:55:15.525Z,924.34
2023-01-30T08:56:15.375Z,924.36
2023-01-30T08:57:15.425Z,924.39
2023-01-30T08:58:15.336Z,924.39
2023-01-30T08:59:15.386Z,924.40
2023-01-30T09:00:15.548Z,924.41
2023-01-30T09:01:15.345Z,924.43
2023-01-30T09:02:15.406Z,924.42
2023-01-30T09:03:15.426Z,924.46
2023-01-30T09:04:15.389Z,924.47
2023-01-30T09:05:15.445Z,924.48
2023-01-30T09:06:15.285Z,924.48
2023-01-30T09:07:15.240Z,924.50
2023-01-30T09:08:15.292Z,924.49
2023-01-30T09:09:15.620Z,924.48
2023-01-30T09:10:15.275Z,924.52
2023-01-30T09:11:15.381Z,924.52
2023-01-30T09:12:15.282Z,924.52
2023-01-30T09:13:15.225Z,924.53
2023-01-30T09:14:15.184Z,924.53
2023-01-30T09:15:15.202Z,924.53
2023-01-30T09:16:15.215Z,924.52
2023-01-30T09:17:15.255Z,924.53
2023-01-30T09:18:15.162Z,924.49
2023-01-30T09:19:15.286Z,924.50
2023-01-30T09:20:15.189Z,924.51
2023-01-30T09:21:16.056Z,924.51
2023-01-30T09:22:15.097Z,924.52
2023-01-30T09:23:15.193Z,924.52
2023-01-30T09:24:15.096Z,924.53
2023-01-30T09:25:15.187Z,924.54
2023-01-30T09:26:15.128Z,924.55
2023-01-30T09:27:15.072Z,924.54
2023-01-30T09:28:15.040Z,924.54
2023-01-30T09:29:15.132Z,924.52
2023-01-30T09:30:14.998Z,924.53
2023-01-30T09:31:15.315Z,924.51
2023-01-30T09:32:14.995Z,924.50
2023-01-30T09:33:15.098Z,924.48
2023-01-30T09:34:14.962Z,924.49
2023-01-30T09:35:15.084Z,924.47
2023-01-30T09:36:14.973Z,924.49
2023-01-30T09:37:15.025Z,924.49
2023-01-30T09:38:14.986Z,924.50
2023-01-30T09:39:14.994Z,924.47
2023-01-30T09:40:14.971Z,924.49
2023-01-30T09:41:15.012Z,924.51
2023-01-30T09:42:14.846Z,924.50
2023-01-30T09:43:15.080Z,924.52
2023-01-30T09:44:14.929Z,924.54
2023-01-30T09:45:14.929Z,924.57
2023-01-30T09:46:14.899Z,924.61
2023-01-30T09:47:14.898Z,924.60
2023-01-30T09:48:18.269Z,924.59
2023-01-30T09:49:14.833Z,924.60
2023-01-30T09:50:14.846Z,924.63
2023-01-30T09:51:14.815Z,924.59
2023-01-30T09:52:14.854Z,924.62
2023-01-30T09:53:14.790Z,924.66
2023-01-30T09:54:14.733Z,924.69
2023-01-30T09:55:14.800Z,924.70
2023-01-30T09:56:14.806Z,924.74
2023-01-30T09:57:21.710Z,924.75
2023-01-30T09:58:14.693Z,924.73
2023-01-30T09:59:14.803Z,924.73
2023-01-30T10:00:14.835Z,924.74
2023-01-30T10:01:14.691Z,924.76
2023-01-30T10:02:14.801Z,924.79
2023-01-30T10:03:14.844Z,924.79
2023-01-30T10:04:14.758Z,924.81
2023-01-30T10:05:14.791Z,924.80
2023-01-30T10:06:14.676Z,924.83
2023-01-30T10:07:14.776Z,924.86
2023-01-30T10:08:14.754Z,924.79
2023-01-30T10:09:14.598Z,924.78
2023-01-30T10:10:14.572Z,924.82
2023-01-30T10:11:14.592Z,924.81
2023-01-30T10:12:14.579Z,924.88
2023-01-30T10:13:14.584Z,924.84
2023-01-30T10:14:14.558Z,924.85
2023-01-30T10:15:14.605Z,924.86
2023-01-30T10:16:14.530Z,924.86
2023-01-30T10:17:14.510Z,924.85
2023-01-30T10:18:14.531Z,924.82
2023-01-30T10:19:18.187Z,924.86
2023-01-30T10:20:14.494Z,924.84
2023-01-30T10:21:14.493Z,924.85
2023-01-30T10:22:14.441Z,924.85
2023-01-30T10:23:14.449Z,924.84
2023-01-30T10:24:14.449Z,924.84
2023-01-30T10:25:14.468Z,924.85
2023-01-30T10:26:14.485Z,924.84
2023-01-30T10:27:14.427Z,924.82
2023-01-30T10:28:14.378Z,924.81
2023-01-30T10:29:14.439Z,924.81
2023-01-30T10:30:15.275Z,924.82
2023-01-30T10:31:14.453Z,924.81
2023-01-30T10:32:14.411Z,924.85
2023-01-30T10:33:14.406Z,924.81
2023-01-30T10:34:14.375Z,924.84
2023-01-30T10:35:14.429Z,924.87
2023-01-30T10:36:14.331Z,924.89
2023-01-30T10:37:14.365Z,924.89
2023-01-30T10:38:14.340Z,924.90
2023-01-30T10:39:14.307Z,924.91
2023-01-30T10:40:14.457Z,924.90
2023-01-30T10:41:14.259Z,924.88
2023-01-30T10:42:14.266Z,924.91
2023-01-30T10:43:14.219Z,924.90
2023-01-30T10:44:14.245Z,924.90
2023-01-30T10:45:14.296Z,924.95
2023-01-30T10:46:14.722Z,924.90
2023-01-30T10:47:14.267Z,924.87
2023-01-30T10:48:14.226Z,924.88
2023-01-30T10:49:14.220Z,924.84
2023-01-30T10:50:14.216Z,924.83
2023-01-30T10:51:14.299Z,924.90
2023-01-30T10:52:14.128Z,924.88
2023-01-30T10:53:14.633Z,924.83
2023-01-30T10:54:14.356Z,924.82
2023-01-30T10:55:17.986Z,924.85
2023-01-30T10:56:14.227Z,924.83
2023-01-30T10:57:14.576Z,924.82
2023-01-30T10:58:14.651Z,924.85
2023-01-30T10:59:14.763Z,924.82
2023-01-30T11:00:14.403Z,924.85
2023-01-30T11:01:14.157Z,924.85
2023-01-30T11:02:14.124Z,924.81
2023-01-30T11:03:14.151Z,924.79
2023-01-30T11:04:14.126Z,924.81
2023-01-30T11:05:14.131Z,924.75
2023-01-30T11:06:14.339Z,924.75
2023-01-30T11:07:14.094Z,924.74
2023-01-30T11:08:15.436Z,924.75
2023-01-30T11:09:14.039Z,924.77
2023-01-30T11:10:14.471Z,924.78
2023-01-30T11:11:14.058Z,924.76
2023-01-30T11:12:14.014Z,924.77
2023-01-30T11:13:14.647Z,924.80
2023-01-30T11:14:14.141Z,924.82
2023-01-30T11:15:14.542Z,924.82
2023-01-30T11:16:14.151Z,924.83
2023-01-30T11:17:14.822Z,924.88
2023-01-30T11:18:52.055Z,924.86
2023-01-30T11:19:22.970Z,924.86
2023-01-30T11:20:14.038Z,924.89
2023-01-30T11:21:15.159Z,924.87
2023-01-30T11:22:14.102Z,924.89
2023-01-30T11:23:13.792Z,924.89
2023-01-30T11:24:13.784Z,924.90
2023-01-30T11:25:13.816Z,924.90
2023-01-30T11:26:13.892Z,924.87
2023-01-30T11:27:13.850Z,924.93
2023-01-30T11:28:14.069Z,924.93
2023-01-30T11:29:13.813Z,924.88
2023-01-30T11:30:13.811Z,924.91
2023-01-30T11:31:14.056Z,924.92
2023-01-30T11:32:13.905Z,924.92
2023-01-30T11:33:13.963Z,924.93
2023-01-30T11:34:13.702Z,924.98
2023-01-30T11:35:13.855Z,924.94
2023-01-30T11:36:13.722Z,924.98
2023-01-30T11:37:13.788Z,924.92
2023-01-30T11:38:13.685Z,924.95
2023-01-30T11:39:13.665Z,924.99
2023-01-30T11:40:14.390Z,925.01
2023-01-30T11:41:14.463Z,925.14
2023-01-30T11:42:13.751Z,925.05
2023-01-30T11:43:14.466Z,925.06
2023-01-30T11:44:14.795Z,925.07
2023-01-30T11:45:17.892Z,925.06
2023-01-30T11:46:14.345Z,925.08
2023-01-30T11:47:14.406Z,925.07
2023-01-30T11:48:31.549Z,925.08
2023-01-30T11:49:45.411Z,925.09
2023-01-30T11:50:13.850Z,925.09
2023-01-30T11:51:13.636Z,925.07
2023-01-30T11:52:14.559Z,925.10
2023-01-30T11:53:14.181Z,925.12
2023-01-30T11:54:13.678Z,925.11
2023-01-30T11:55:13.936Z,925.13
2023-01-30T11:56:13.688Z,925.14
2023-01-30T11:57:13.649Z,925.11
2023-01-30T11:58:13.588Z,925.15
2023-01-30T11:59:13.611Z,925.15
2023-01-30T12:00:13.780Z,925.25
2023-01-30T12:01:13.702Z,925.20
2023-01-30T12:02:13.677Z,925.28
2023-01-30T12:03:13.552Z,925.28
2023-01-30T12:04:13.737Z,925.28
2023-01-30T12:05:13.861Z,925.34
2023-01-30T12:06:13.598Z,925.35
2023-01-30T12:07:13.627Z,925.35
2023-01-30T12:08:13.409Z,925.32
2023-01-30T12:09:13.325Z,925.36
2023-01-30T12:10:13.348Z,925.40
2023-01-30T12:11:13.372Z,925.35
2023-01-30T12:12:13.338Z,925.38
2023-01-30T12:13:13.388Z,925.39
2023-01-30T12:14:13.296Z,925.41
2023-01-30T12:15:13.274Z,925.44
2023-01-30T12:16:13.368Z,925.38
2023-01-30T12:17:13.809Z,925.44
2023-01-30T12:18:13.319Z,925.48
2023-01-30T12:19:13.287Z,925.38
2023-01-30T12:20:13.290Z,925.43
2023-01-30T12:21:13.358Z,925.41
2023-01-30T12:22:17.002Z,925.50
2023-01-30T12:23:13.238Z,925.43
2023-01-30T12:24:13.250Z,925.42
2023-01-30T12:25:13.155Z,925.46
2023-01-30T12:26:13.177Z,925.47
2023-01-30T12:27:13.165Z,925.52
2023-01-30T12:28:13.090Z,925.52